createdAt,value
2022-11-05T00:02:12.398Z,13.97
2022-11-05T00:04:58.311Z,13.10
2022-11-05T00:07:54.570Z,14.20
2022-11-05T00:10:25.754Z,18.70
2022-11-05T00:13:12.107Z,13.70
2022-11-05T00:15:58.380Z,12.50
2022-11-05T00:18:25.629Z,11.83
2022-11-05T00:20:52.716Z,10.80
2022-11-05T00:23:38.715Z,10.63
2022-11-05T00:26:06.673Z,10.33
2022-11-05T00:28:33.881Z,11.37
2022-11-05T00:31:09.820Z,9.70
2022-11-05T00:33:37.340Z,9.53
2022-11-05T00:36:04.908Z,9.50
2022-11-05T00:38:32.023Z,8.67
2022-11-05T00:41:02.359Z,9.80
2022-11-05T00:43:51.478Z,7.87
2022-11-05T00:46:18.696Z,8.40
2022-11-05T00:49:04.422Z,7.30
2022-11-05T00:51:31.526Z,10.73
2022-11-05T00:54:00.838Z,8.27
2022-11-05T00:56:28.006Z,7.97
2022-11-05T00:58:56.152Z,8.23
2022-11-05T01:01:24.102Z,8.33
2022-11-05T01:03:52.011Z,7.60
2022-11-05T01:06:19.341Z,8.97
2022-11-05T01:08:46.934Z,7.27
2022-11-05T01:11:33.041Z,7.73
2022-11-05T01:14:05.026Z,7.00
2022-11-05T01:16:32.277Z,7.80
2022-11-05T01:18:59.671Z,7.80
2022-11-05T01:21:26.833Z,7.63
2022-11-05T01:23:53.969Z,7.07
2022-11-05T01:26:21.069Z,8.33
2022-11-05T01:28:52.283Z,8.03
2022-11-05T01:31:19.448Z,8.60
2022-11-05T01:33:46.586Z,8.53
2022-11-05T01:36:13.718Z,7.87
2022-11-05T01:38:40.818Z,8.30
2022-11-05T01:41:07.970Z,9.87
2022-11-05T01:43:47.887Z,11.20
2022-11-05T01:46:14.973Z,9.70
2022-11-05T01:48:42.056Z,8.50
2022-11-05T01:51:13.020Z,9.03
2022-11-05T01:53:44.171Z,10.00
2022-11-05T01:56:43.557Z,8.73
2022-11-05T01:59:12.130Z,9.57
2022-11-05T02:01:39.335Z,8.50
2022-11-05T02:04:08.029Z,9.60
2022-11-05T02:06:35.749Z,8.73
2022-11-05T02:09:04.115Z,10.13
2022-11-05T02:11:31.280Z,8.13
2022-11-05T02:13:58.416Z,9.77
2022-11-05T02:16:44.360Z,7.77
2022-11-05T02:19:26.940Z,8.67
2022-11-05T02:21:54.085Z,8.30
2022-11-05T02:24:40.205Z,8.37
2022-11-05T02:27:10.543Z,8.77
2022-11-05T02:29:56.448Z,8.90
2022-11-05T02:32:29.846Z,8.50
2022-11-05T02:35:03.413Z,8.53
2022-11-05T02:37:39.585Z,8.50
2022-11-05T02:40:27.439Z,9.00
2022-11-05T02:42:54.493Z,10.57
2022-11-05T02:45:21.744Z,7.60
2022-11-05T02:47:54.550Z,7.83
2022-11-05T02:50:40.911Z,7.77
2022-11-05T02:53:11.154Z,7.03
2022-11-05T02:55:42.952Z,7.80
2022-11-05T02:58:12.148Z,7.90
2022-11-05T03:00:41.275Z,7.67
2022-11-05T03:03:09.890Z,8.17
2022-11-05T03:06:03.665Z,8.00
2022-11-05T03:09:09.305Z,7.87
2022-11-05T03:11:40.178Z,7.17
2022-11-05T03:14:07.304Z,6.60
2022-11-05T03:16:43.550Z,7.20
2022-11-05T03:19:10.714Z,7.30
2022-11-05T03:21:49.772Z,7.27
2022-11-05T03:24:17.933Z,6.90
2022-11-05T03:26:45.049Z,8.10
2022-11-05T03:29:26.355Z,7.60
2022-11-05T03:31:54.237Z,7.57
2022-11-05T03:34:22.766Z,8.30
2022-11-05T03:36:52.027Z,6.97
2022-11-05T03:39:29.031Z,6.40
2022-11-05T03:41:56.838Z,7.40
2022-11-05T03:44:28.225Z,6.67
2022-11-05T03:46:56.217Z,6.63
2022-11-05T03:49:25.237Z,6.77
2022-11-05T03:51:54.630Z,9.80
2022-11-05T03:54:21.743Z,6.63
2022-11-05T03:56:48.932Z,6.90
2022-11-05T03:59:16.014Z,8.27
2022-11-05T04:01:43.237Z,6.47
2022-11-05T04:04:10.470Z,7.43
2022-11-05T04:06:56.737Z,7.63
2022-11-05T04:09:42.665Z,6.60
2022-11-05T04:12:31.275Z,6.50
2022-11-05T04:14:58.396Z,5.83
2022-11-05T04:17:25.472Z,7.10
2022-11-05T04:20:11.606Z,7.37
2022-11-05T04:22:57.443Z,8.33
2022-11-05T04:25:24.561Z,6.60
2022-11-05T04:27:51.686Z,7.97
2022-11-05T04:30:18.910Z,7.20
2022-11-05T04:33:02.074Z,6.17
2022-11-05T04:35:37.869Z,5.93
2022-11-05T04:38:05.888Z,6.23
2022-11-05T04:40:33.136Z,6.67
2022-11-05T04:43:00.281Z,6.10
2022-11-05T04:45:28.410Z,6.00
2022-11-05T04:47:56.712Z,6.13
2022-11-05T04:50:23.812Z,7.17
2022-11-05T04:52:50.970Z,9.97
2022-11-05T04:55:18.260Z,8.20
2022-11-05T04:57:47.954Z,7.90
2022-11-05T05:00:15.402Z,8.13
2022-11-05T05:02:42.474Z,6.03
2022-11-05T05:05:09.570Z,6.17
2022-11-05T05:07:36.747Z,6.70
2022-11-05T05:10:05.942Z,6.17
2022-11-05T05:12:33.568Z,5.53
2022-11-05T05:15:00.665Z,6.60
2022-11-05T05:17:27.828Z,5.83
2022-11-05T05:20:16.310Z,6.47
2022-11-05T05:22:43.437Z,5.80
2022-11-05T05:25:10.636Z,6.20
2022-11-05T05:27:37.720Z,6.07
2022-11-05T05:30:05.001Z,6.13
2022-11-05T05:32:32.120Z,6.77
2022-11-05T05:34:59.213Z,6.70
2022-11-05T05:37:26.300Z,6.23
2022-11-05T05:39:53.674Z,6.43
2022-11-05T05:42:22.832Z,6.47
2022-11-05T05:44:49.959Z,5.80
2022-11-05T05:47:17.054Z,5.33
2022-11-05T05:49:44.136Z,5.10
2022-11-05T05:52:11.223Z,5.70
2022-11-05T05:54:42.413Z,6.00
2022-11-05T05:57:10.148Z,5.90
2022-11-05T05:59:37.301Z,5.93
2022-11-05T06:02:04.620Z,6.57
2022-11-05T06:04:31.911Z,7.23
2022-11-05T06:06:59.007Z,5.60
2022-11-05T06:09:29.356Z,5.80
2022-11-05T06:11:56.594Z,6.30
2022-11-05T06:14:23.680Z,6.43
2022-11-05T06:16:50.883Z,5.70
2022-11-05T06:19:17.996Z,6.00
2022-11-05T06:21:45.271Z,6.20
2022-11-05T06:24:12.406Z,5.40
2022-11-05T06:26:42.822Z,5.33
2022-11-05T06:29:13.356Z,5.90
2022-11-05T06:31:40.686Z,7.80
2022-11-05T06:34:07.819Z,6.50
2022-11-05T06:36:34.948Z,5.40
2022-11-05T06:39:02.104Z,6.00
2022-11-05T06:41:29.252Z,6.20
2022-11-05T06:43:56.366Z,5.87
2022-11-05T06:46:23.849Z,5.83
2022-11-05T06:48:51.222Z,5.60
2022-11-05T06:51:18.609Z,6.93
2022-11-05T06:53:45.941Z,8.40
2022-11-05T06:56:13.193Z,5.60
2022-11-05T06:58:40.283Z,5.73
2022-11-05T07:01:08.675Z,7.80
2022-11-05T07:03:38.884Z,6.40
2022-11-05T07:06:06.737Z,7.43
2022-11-05T07:08:34.318Z,9.23
2022-11-05T07:11:01.483Z,6.70
2022-11-05T07:13:28.627Z,9.03
2022-11-05T07:15:55.979Z,6.13
2022-11-05T07:18:23.217Z,7.00
2022-11-05T07:20:50.359Z,6.50
2022-11-05T07:23:17.511Z,6.80
2022-11-05T07:25:44.651Z,7.90
2022-11-05T07:28:11.880Z,6.80
2022-11-05T07:30:39.477Z,8.03
2022-11-05T07:33:06.551Z,7.23
2022-11-05T07:35:33.747Z,13.70
2022-11-05T07:38:00.881Z,7.30
2022-11-05T07:40:28.512Z,9.77
2022-11-05T07:42:56.614Z,7.83
2022-11-05T07:45:24.313Z,6.53
2022-11-05T07:47:51.442Z,7.60
2022-11-05T07:50:18.973Z,8.53
2022-11-05T07:52:46.298Z,7.37
2022-11-05T07:55:13.522Z,8.47
2022-11-05T07:57:44.732Z,8.27
2022-11-05T08:00:12.777Z,7.97
2022-11-05T08:02:40.038Z,7.20
2022-11-05T08:05:07.672Z,9.30
2022-11-05T08:07:34.884Z,7.40
2022-11-05T08:10:04.199Z,8.10
2022-11-05T08:12:31.895Z,8.17
2022-11-05T08:14:59.254Z,28.37
2022-11-05T08:17:26.426Z,14.37
2022-11-05T08:19:53.629Z,19.60
2022-11-05T08:22:20.794Z,33.53
2022-11-05T08:24:47.980Z,9.00
2022-11-05T08:27:15.286Z,6.90
2022-11-05T08:29:42.406Z,15.80
2022-11-05T08:32:09.547Z,8.30
2022-11-05T08:34:36.687Z,9.83
2022-11-05T08:37:03.920Z,8.63
2022-11-05T08:39:31.198Z,12.30
2022-11-05T08:41:58.301Z,10.60
2022-11-05T08:44:25.495Z,12.00
2022-11-05T08:46:52.673Z,14.20
2022-11-05T08:49:19.768Z,14.30
2022-11-05T08:51:46.890Z,9.00
2022-11-05T08:54:14.131Z,7.23
2022-11-05T08:56:41.312Z,8.07
2022-11-05T08:59:08.520Z,8.40
2022-11-05T09:01:35.827Z,8.93
2022-11-05T09:04:03.106Z,8.13
2022-11-05T09:06:30.334Z,7.80
2022-11-05T09:08:57.621Z,7.27
2022-11-05T09:11:43.021Z,6.90
2022-11-05T09:14:11.909Z,4.70
2022-11-05T09:16:39.013Z,4.37
2022-11-05T09:19:06.110Z,3.33
2022-11-05T09:21:34.745Z,2.80
2022-11-05T09:24:02.207Z,2.70
2022-11-05T09:26:29.376Z,2.43
2022-11-05T09:28:56.485Z,1.60
2022-11-05T09:31:23.573Z,1.70
2022-11-05T09:33:50.672Z,1.53
2022-11-05T09:36:17.835Z,2.07
2022-11-05T09:38:44.926Z,3.40
2022-11-05T09:41:22.011Z,4.37
2022-11-05T09:43:50.066Z,3.60
2022-11-05T09:46:21.229Z,3.17
2022-11-05T09:48:48.763Z,2.30
2022-11-05T09:51:22.450Z,2.87
2022-11-05T09:53:51.186Z,3.10
2022-11-05T09:56:28.098Z,3.20
2022-11-05T09:58:59.800Z,4.00
2022-11-05T10:01:28.956Z,2.83
2022-11-05T10:03:57.561Z,4.80
2022-11-05T10:06:25.361Z,3.40
2022-11-05T10:08:55.206Z,3.20
2022-11-05T10:11:33.881Z,4.20
2022-11-05T10:14:03.695Z,3.60
2022-11-05T10:16:31.705Z,8.07
2022-11-05T10:19:04.148Z,3.60
2022-11-05T10:21:59.448Z,3.30
2022-11-05T10:24:19.507Z,4.70
2022-11-05T10:26:47.933Z,6.00
2022-11-05T10:29:16.779Z,6.50
2022-11-05T10:31:43.960Z,5.47
2022-11-05T10:34:13.688Z,2.73
2022-11-05T10:36:40.925Z,3.23
2022-11-05T10:39:14.984Z,3.30
2022-11-05T10:41:47.947Z,3.53
2022-11-05T10:44:24.221Z,2.00
2022-11-05T10:46:57.376Z,3.37
2022-11-05T10:49:29.158Z,3.57
2022-11-05T10:51:59.217Z,2.53
2022-11-05T10:54:27.441Z,2.70
2022-11-05T10:56:54.598Z,3.43
2022-11-05T10:59:21.712Z,4.33
2022-11-05T11:01:49.002Z,62.93
2022-11-05T11:04:17.748Z,23.10
2022-11-05T11:06:47.524Z,2.97
2022-11-05T11:09:40.925Z,3.60
2022-11-05T11:12:08.180Z,2.77
2022-11-05T11:14:35.327Z,2.63
2022-11-05T11:17:18.011Z,3.80
2022-11-05T11:19:45.180Z,3.10
2022-11-05T11:22:13.591Z,3.60
2022-11-05T11:24:50.994Z,2.63
2022-11-05T11:27:23.954Z,2.53
2022-11-05T11:29:52.918Z,3.00
2022-11-05T11:32:20.658Z,3.10
2022-11-05T11:34:50.038Z,3.53
2022-11-05T11:37:19.559Z,3.10
2022-11-05T11:39:48.202Z,3.67
2022-11-05T11:42:27.610Z,3.10
2022-11-05T11:44:54.739Z,3.33
2022-11-05T11:47:22.032Z,3.00
2022-11-05T11:49:53.141Z,2.90
2022-11-05T11:52:36.626Z,3.73
2022-11-05T11:55:09.986Z,2.20
2022-11-05T11:57:43.527Z,2.17
2022-11-05T12:00:10.778Z,4.10
2022-11-05T12:02:50.091Z,3.30
2022-11-05T12:05:24.228Z,2.27
2022-11-05T12:07:53.128Z,4.03
2022-11-05T12:10:20.226Z,3.67
2022-11-05T12:12:47.283Z,4.10
2022-11-05T12:15:23.489Z,4.40
2022-11-05T12:17:58.910Z,16.10
2022-11-05T12:20:26.021Z,4.50
2022-11-05T12:22:53.232Z,4.33
2022-11-05T12:25:24.839Z,18.40
2022-11-05T12:27:55.065Z,4.50
2022-11-05T12:30:22.261Z,3.10
2022-11-05T12:33:08.480Z,3.00
2022-11-05T12:35:44.121Z,3.53
2022-11-05T12:38:23.313Z,2.60
2022-11-05T12:40:50.404Z,4.07
2022-11-05T12:43:39.853Z,3.83
2022-11-05T12:46:06.994Z,4.40
2022-11-05T12:48:37.031Z,3.80
2022-11-05T12:51:10.550Z,3.70
2022-11-05T12:53:47.147Z,5.47
2022-11-05T12:56:22.061Z,4.50
2022-11-05T12:58:51.406Z,4.60
2022-11-05T13:01:24.162Z,5.07
2022-11-05T13:04:01.479Z,4.87
2022-11-05T13:06:33.338Z,4.23
2022-11-05T13:09:01.457Z,5.17
2022-11-05T13:11:39.616Z,5.70
2022-11-05T13:14:16.926Z,4.80
2022-11-05T13:16:48.684Z,5.03
2022-11-05T13:19:30.345Z,4.70
2022-11-05T13:21:58.586Z,5.63
2022-11-05T13:24:27.255Z,5.10
2022-11-05T13:27:00.049Z,5.43
2022-11-05T13:29:33.113Z,5.17
2022-11-05T13:32:21.721Z,6.47
2022-11-05T13:34:48.928Z,7.40
2022-11-05T13:37:34.564Z,6.40
2022-11-05T13:40:02.396Z,6.60
2022-11-05T13:42:48.527Z,8.10
2022-11-05T13:45:15.838Z,7.83
2022-11-05T13:47:52.028Z,7.67
2022-11-05T13:50:21.872Z,6.00
2022-11-05T13:53:07.605Z,6.43
2022-11-05T13:55:34.658Z,6.00
2022-11-05T13:58:01.813Z,5.90
2022-11-05T14:00:29.216Z,6.50
2022-11-05T14:03:07.195Z,6.73
2022-11-05T14:05:35.463Z,7.07
2022-11-05T14:08:08.635Z,6.93
2022-11-05T14:10:45.317Z,6.87
2022-11-05T14:13:24.292Z,13.20
2022-11-05T14:16:17.756Z,12.93
2022-11-05T14:18:46.078Z,10.60
2022-11-05T14:21:28.545Z,16.20
2022-11-05T14:23:59.162Z,11.27
2022-11-05T14:26:26.938Z,9.70
2022-11-05T14:29:03.328Z,8.07
2022-11-05T14:31:54.416Z,8.13
2022-11-05T14:34:17.781Z,7.47
2022-11-05T14:36:47.926Z,6.67
2022-11-05T14:39:15.093Z,5.40
2022-11-05T14:41:55.469Z,4.77
2022-11-05T14:44:22.572Z,3.33
2022-11-05T14:46:50.597Z,4.80
2022-11-05T14:49:18.556Z,4.70
2022-11-05T14:51:46.457Z,5.00
2022-11-05T14:54:19.861Z,4.87
2022-11-05T14:56:53.297Z,5.10
2022-11-05T14:59:31.338Z,5.77
2022-11-05T15:01:58.642Z,5.47
2022-11-05T15:04:25.898Z,6.20
2022-11-05T15:07:05.881Z,5.60
2022-11-05T15:09:34.688Z,4.50
2022-11-05T15:12:04.580Z,5.03
2022-11-05T15:14:33.394Z,7.07
2022-11-05T15:17:01.109Z,5.50
2022-11-05T15:19:30.175Z,7.80
2022-11-05T15:21:58.192Z,7.00
2022-11-05T15:24:28.379Z,8.50
2022-11-05T15:26:58.532Z,7.17
2022-11-05T15:29:26.948Z,5.00
2022-11-05T15:31:54.071Z,5.20
2022-11-05T15:34:25.797Z,5.53
2022-11-05T15:36:57.080Z,6.80
2022-11-05T15:39:29.931Z,5.87
2022-11-05T15:41:58.085Z,5.40
2022-11-05T15:44:25.932Z,4.43
2022-11-05T15:47:08.877Z,6.00
2022-11-05T15:49:36.008Z,7.73
2022-11-05T15:52:03.286Z,9.43
2022-11-05T15:54:31.280Z,7.87
2022-11-05T15:56:59.140Z,7.70
2022-11-05T15:59:27.036Z,6.20
2022-11-05T16:01:56.435Z,6.77
2022-11-05T16:04:28.218Z,7.00
2022-11-05T16:06:55.954Z,7.50
2022-11-05T16:09:24.405Z,7.13
2022-11-05T16:12:10.504Z,6.97
2022-11-05T16:14:37.615Z,6.20
2022-11-05T16:17:11.384Z,8.03
2022-11-05T16:19:40.923Z,7.30
2022-11-05T16:22:08.135Z,10.63
2022-11-05T16:24:35.237Z,12.03
2022-11-05T16:27:05.324Z,11.10
2022-11-05T16:29:39.440Z,12.43
2022-11-05T16:32:09.186Z,12.23
2022-11-05T16:34:37.845Z,20.67
2022-11-05T16:37:05.652Z,17.13
2022-11-05T16:39:32.781Z,9.43
2022-11-05T16:41:59.926Z,8.53
2022-11-05T16:44:27.108Z,7.93
2022-11-05T16:46:54.221Z,9.57
2022-11-05T16:49:21.295Z,8.57
2022-11-05T16:51:48.460Z,9.00
2022-11-05T16:54:15.557Z,9.40
2022-11-05T16:56:43.894Z,11.47
2022-11-05T16:59:12.272Z,13.40
2022-11-05T17:01:40.422Z,13.60
2022-11-05T17:04:09.340Z,8.23
2022-11-05T17:06:36.482Z,10.57
2022-11-05T17:09:03.786Z,9.63
2022-11-05T17:11:30.929Z,7.43
2022-11-05T17:13:58.006Z,8.27
2022-11-05T17:16:26.336Z,7.00
2022-11-05T17:18:53.446Z,8.77
2022-11-05T17:21:20.602Z,7.40
2022-11-05T17:23:47.719Z,8.27
2022-11-05T17:26:14.989Z,13.33
2022-11-05T17:28:42.167Z,12.33
2022-11-05T17:31:11.409Z,17.90
2022-11-05T17:33:38.565Z,17.57
2022-11-05T17:36:06.312Z,17.17
2022-11-05T17:38:33.431Z,15.00
2022-11-05T17:41:00.506Z,15.37
2022-11-05T17:43:27.663Z,11.50
2022-11-05T17:45:56.628Z,9.97
2022-11-05T17:48:27.183Z,13.50
2022-11-05T17:50:55.748Z,11.40
2022-11-05T17:53:22.866Z,11.87
2022-11-05T17:55:49.925Z,9.30
2022-11-05T17:58:17.225Z,10.03
2022-11-05T18:00:44.442Z,10.87
2022-11-05T18:03:12.096Z,9.37
2022-11-05T18:05:40.017Z,9.10
2022-11-05T18:08:07.289Z,10.03
2022-11-05T18:10:36.481Z,10.30
2022-11-05T18:13:03.620Z,11.03
2022-11-05T18:15:30.776Z,11.57
2022-11-05T18:17:57.900Z,12.10
2022-11-05T18:20:25.054Z,11.07
2022-11-05T18:22:52.186Z,11.67
2022-11-05T18:25:19.395Z,14.80
2022-11-05T18:27:46.521Z,11.57
2022-11-05T18:30:15.520Z,17.33
2022-11-05T18:32:43.288Z,16.47
2022-11-05T18:35:10.435Z,14.63
2022-11-05T18:37:38.463Z,13.30
2022-11-05T18:40:06.013Z,10.90
2022-11-05T18:42:33.099Z,12.63
2022-11-05T18:45:00.264Z,14.27
2022-11-05T18:47:27.344Z,16.20
2022-11-05T18:49:54.475Z,16.80
2022-11-05T18:52:22.832Z,18.87
2022-11-05T18:54:49.986Z,18.43
2022-11-05T18:57:17.075Z,16.63
2022-11-05T18:59:46.807Z,16.33
2022-11-05T19:02:14.335Z,15.30
2022-11-05T19:05:00.299Z,17.10
2022-11-05T19:07:29.230Z,19.50
2022-11-05T19:09:56.333Z,15.93
2022-11-05T19:12:23.409Z,16.30
2022-11-05T19:14:50.647Z,15.47
2022-11-05T19:17:17.716Z,15.47
2022-11-05T19:19:44.808Z,14.23
2022-11-05T19:22:11.917Z,14.37
2022-11-05T19:24:39.217Z,17.63
2022-11-05T19:27:11.131Z,16.17
2022-11-05T19:29:38.215Z,16.03
2022-11-05T19:32:05.545Z,25.47
2022-11-05T19:34:32.614Z,22.27
2022-11-05T19:36:59.720Z,19.23
2022-11-05T19:39:26.784Z,18.90
2022-11-05T19:41:56.582Z,18.63
2022-11-05T19:44:27.437Z,16.03
2022-11-05T19:46:54.515Z,15.67
2022-11-05T19:49:21.644Z,16.50
2022-11-05T19:51:48.732Z,16.27
2022-11-05T19:54:15.832Z,15.83
2022-11-05T19:56:43.056Z,22.80
2022-11-05T19:59:10.817Z,19.47
2022-11-05T20:01:37.960Z,18.57
2022-11-05T20:04:05.743Z,21.10
2022-11-05T20:06:34.882Z,21.67
2022-11-05T20:11:50.384Z,18.83
2022-11-05T20:14:17.485Z,16.87
2022-11-05T20:16:47.389Z,16.40
2022-11-05T20:19:15.322Z,16.23
2022-11-05T20:21:42.667Z,16.30
2022-11-05T20:24:09.900Z,21.13
2022-11-05T20:26:36.988Z,18.93
2022-11-05T20:29:04.072Z,17.10
2022-11-05T20:31:31.278Z,19.30
2022-11-05T20:33:58.417Z,17.10
2022-11-05T20:36:25.922Z,17.20
2022-11-05T20:38:55.224Z,16.77
2022-11-05T20:41:22.351Z,15.40
2022-11-05T20:43:49.661Z,18.20
2022-11-05T20:46:18.253Z,15.70
2022-11-05T20:48:48.333Z,17.50
2022-11-05T20:51:16.145Z,16.37
2022-11-05T20:53:43.764Z,17.03
2022-11-05T20:56:24.260Z,18.13
2022-11-05T20:58:51.362Z,17.63
2022-11-05T21:01:18.829Z,24.93
2022-11-05T21:03:46.324Z,24.80
2022-11-05T21:06:14.710Z,25.90
2022-11-05T21:08:41.803Z,31.47
2022-11-05T21:11:08.913Z,29.50
2022-11-05T21:13:36.116Z,30.17
2022-11-05T21:16:03.203Z,27.10
2022-11-05T21:18:31.067Z,20.20
2022-11-05T21:20:59.777Z,19.10
2022-11-05T21:23:27.977Z,17.57
2022-11-05T21:25:55.053Z,17.07
2022-11-05T21:28:22.167Z,21.70
2022-11-05T21:30:49.306Z,19.53
2022-11-05T21:33:16.760Z,21.30
2022-11-05T21:35:44.463Z,23.83
2022-11-05T21:38:12.476Z,19.40
2022-11-05T21:40:39.858Z,20.37
2022-11-05T21:43:07.022Z,20.23
2022-11-05T21:45:34.100Z,17.60
2022-11-05T21:48:01.191Z,18.50
2022-11-05T21:50:46.933Z,16.90
2022-11-05T21:53:36.191Z,21.83
2022-11-05T21:56:34.384Z,25.20
2022-11-05T21:59:20.196Z,24.67
2022-11-05T22:01:47.365Z,27.83
2022-11-05T22:04:16.865Z,30.20
2022-11-05T22:06:44.022Z,24.33
2022-11-05T22:09:11.156Z,22.50
2022-11-05T22:11:38.298Z,18.63
2022-11-05T22:14:05.368Z,20.07
2022-11-05T22:16:32.489Z,19.17
2022-11-05T22:18:59.825Z,18.00
2022-11-05T22:21:26.941Z,18.63
2022-11-05T22:23:54.187Z,18.77
2022-11-05T22:26:21.308Z,17.97
2022-11-05T22:28:48.504Z,17.00
2022-11-05T22:31:15.880Z,16.10
2022-11-05T22:33:43.124Z,19.00
2022-11-05T22:36:10.412Z,17.87
2022-11-05T22:38:37.488Z,19.40
2022-11-05T22:41:15.009Z,16.80
2022-11-05T22:43:42.100Z,16.07
2022-11-05T22:46:13.365Z,14.40
2022-11-05T22:48:40.773Z,16.37
2022-11-05T22:51:18.447Z,16.37
2022-11-05T22:53:45.614Z,15.13
2022-11-05T22:56:13.554Z,15.17
2022-11-05T22:58:40.692Z,18.53
2022-11-05T23:01:09.733Z,12.33
2022-11-05T23:03:36.977Z,14.93
2022-11-05T23:06:07.087Z,14.60
2022-11-05T23:08:54.970Z,16.00
2022-11-05T23:11:41.102Z,16.47
2022-11-05T23:14:09.476Z,17.67
2022-11-05T23:16:55.519Z,22.73
2022-11-05T23:19:41.727Z,20.00
2022-11-05T23:22:49.439Z,15.47
2022-11-05T23:25:20.427Z,15.73
2022-11-05T23:27:50.558Z,16.80
2022-11-05T23:30:21.795Z,15.27
2022-11-05T23:32:49.219Z,15.63
2022-11-05T23:35:16.373Z,17.07
2022-11-05T23:38:02.285Z,18.30
2022-11-05T23:40:30.078Z,16.20
2022-11-05T23:43:35.851Z,16.23
2022-11-05T23:46:24.245Z,13.53
2022-11-05T23:48:52.713Z,14.70
2022-11-05T23:51:19.789Z,16.90
2022-11-05T23:53:46.880Z,16.17
2022-11-05T23:56:14.362Z,15.53
2022-11-05T23:58:41.552Z,15.00
